createdAt,value
2022-08-30T00:02:57.149Z,94.48
2022-08-30T00:08:02.164Z,96.13
2022-08-30T00:13:06.614Z,96.18
2022-08-30T00:18:09.984Z,96.29
2022-08-30T00:23:15.192Z,97.28
2022-08-30T00:28:18.466Z,97.63
2022-08-30T00:33:22.469Z,96.86
2022-08-30T00:38:26.850Z,98.57
2022-08-30T00:43:34.226Z,96.24
2022-08-30T00:48:46.077Z,98.47
2022-08-30T00:53:54.817Z,97.68
2022-08-30T00:59:00.436Z,97.13
2022-08-30T01:04:05.171Z,99.17
2022-08-30T01:09:10.324Z,99.46
2022-08-30T01:14:15.013Z,100.00
2022-08-30T01:19:28.608Z,100.00
2022-08-30T01:24:34.623Z,100.00
2022-08-30T01:29:38.157Z,97.94
2022-08-30T01:34:41.351Z,99.57
2022-08-30T01:39:47.509Z,100.00
2022-08-30T01:44:50.439Z,99.46
2022-08-30T01:49:53.723Z,97.38
2022-08-30T01:54:58.051Z,97.16
2022-08-30T02:00:01.044Z,99.40
2022-08-30T02:05:04.872Z,100.00
2022-08-30T02:10:10.379Z,99.82
2022-08-30T02:15:13.329Z,100.00
2022-08-30T02:20:16.308Z,100.00
2022-08-30T02:25:21.335Z,100.00
2022-08-30T02:30:24.501Z,100.00
2022-08-30T02:35:28.330Z,100.00
2022-08-30T02:40:32.876Z,100.00
2022-08-30T02:45:35.929Z,100.00
2022-08-30T02:50:41.154Z,100.00
2022-08-30T02:55:45.730Z,100.00
2022-08-30T03:00:48.716Z,100.00
2022-08-30T03:05:54.038Z,100.00
2022-08-30T03:10:58.373Z,100.00
2022-08-30T03:16:01.339Z,100.00
2022-08-30T03:21:04.594Z,100.00
2022-08-30T03:26:09.244Z,100.00
2022-08-30T03:31:12.699Z,100.00
2022-08-30T03:36:15.703Z,100.00
2022-08-30T03:41:20.345Z,100.00
2022-08-30T03:46:26.901Z,100.00
2022-08-30T03:51:31.789Z,100.00
2022-08-30T03:56:36.099Z,100.00
2022-08-30T04:01:39.425Z,100.00
2022-08-30T04:06:42.409Z,100.00
2022-08-30T04:11:47.021Z,99.56
2022-08-30T04:16:50.287Z,100.00
2022-08-30T04:21:53.233Z,100.00
2022-08-30T04:26:57.780Z,100.00
2022-08-30T04:32:01.089Z,100.00
2022-08-30T04:37:04.320Z,100.00
2022-08-30T04:42:09.749Z,100.00
2022-08-30T04:47:12.864Z,100.00
2022-08-30T04:52:16.037Z,100.00
2022-08-30T04:57:20.438Z,100.00
2022-08-30T05:02:24.000Z,100.00
2022-08-30T05:07:27.235Z,100.00
2022-08-30T05:12:31.618Z,100.00
2022-08-30T05:17:34.654Z,99.82
2022-08-30T05:22:37.905Z,98.01
2022-08-30T05:27:42.261Z,98.69
2022-08-30T05:32:45.728Z,100.00
2022-08-30T05:37:48.783Z,100.00
2022-08-30T05:42:53.210Z,99.73
2022-08-30T05:47:56.502Z,100.00
2022-08-30T05:52:59.461Z,100.00
2022-08-30T05:58:03.726Z,100.00
2022-08-30T06:03:06.817Z,99.34
2022-08-30T06:08:09.919Z,100.00
2022-08-30T06:13:15.958Z,98.56
2022-08-30T06:18:28.296Z,99.39
2022-08-30T06:23:32.086Z,99.66
2022-08-30T06:28:36.624Z,99.63
2022-08-30T06:33:39.960Z,98.07
2022-08-30T06:38:43.560Z,97.95
2022-08-30T06:43:49.214Z,99.38
2022-08-30T06:48:52.703Z,97.18
2022-08-30T06:54:00.270Z,97.71
2022-08-30T06:59:05.101Z,97.50
2022-08-30T07:04:08.063Z,96.07
2022-08-30T07:09:11.110Z,96.89
2022-08-30T07:14:15.818Z,97.41
2022-08-30T07:19:21.005Z,95.68
2022-08-30T07:24:24.989Z,94.66
2022-08-30T07:29:29.304Z,94.04
2022-08-30T07:34:32.884Z,93.45
2022-08-30T07:39:41.745Z,92.40
2022-08-30T07:44:52.690Z,91.32
2022-08-30T07:50:01.070Z,90.46
2022-08-30T07:55:05.897Z,90.24
2022-08-30T08:00:11.841Z,89.37
2022-08-30T08:05:17.747Z,88.60
2022-08-30T08:10:21.515Z,85.68
2022-08-30T08:15:26.738Z,83.92
2022-08-30T08:20:30.111Z,83.40
2022-08-30T08:25:33.202Z,81.23
2022-08-30T08:30:38.751Z,78.85
2022-08-30T08:35:42.175Z,77.70
2022-08-30T08:40:54.853Z,75.97
2022-08-30T08:46:05.382Z,73.06
2022-08-30T08:51:29.285Z,72.27
2022-08-30T08:56:36.429Z,71.85
2022-08-30T09:01:40.816Z,70.23
2022-08-30T09:06:52.269Z,69.41
2022-08-30T09:11:55.324Z,67.96
2022-08-30T09:17:04.291Z,67.96
2022-08-30T09:22:26.632Z,66.57
2022-08-30T09:27:33.499Z,65.26
2022-08-30T09:32:41.390Z,65.81
2022-08-30T09:37:50.160Z,60.26
2022-08-30T09:43:08.462Z,62.32
2022-08-30T09:48:33.902Z,60.41
2022-08-30T09:54:01.219Z,57.86
2022-08-30T09:59:14.395Z,58.59
2022-08-30T10:04:31.810Z,56.79
2022-08-30T10:09:43.895Z,56.86
2022-08-30T10:14:57.886Z,56.20
2022-08-30T10:20:14.656Z,53.17
2022-08-30T10:25:22.216Z,55.81
2022-08-30T10:30:25.272Z,54.68
2022-08-30T10:35:38.721Z,53.87
2022-08-30T10:41:06.450Z,51.69
2022-08-30T10:46:15.928Z,50.22
2022-08-30T10:51:26.448Z,48.34
2022-08-30T10:56:31.055Z,49.33
2022-08-30T11:01:54.735Z,50.15
2022-08-30T11:07:10.110Z,51.48
2022-08-30T11:12:26.348Z,46.78
2022-08-30T11:17:33.924Z,48.00
2022-08-30T11:22:39.467Z,47.51
2022-08-30T11:27:48.933Z,49.06
2022-08-30T11:33:07.937Z,48.69
2022-08-30T11:38:41.183Z,47.88
2022-08-30T11:43:56.154Z,44.18
2022-08-30T11:49:07.319Z,46.74
2022-08-30T11:54:29.669Z,46.14
2022-08-30T11:59:44.235Z,46.31
2022-08-30T12:04:49.158Z,47.17
2022-08-30T12:10:05.847Z,46.67
2022-08-30T12:15:26.982Z,47.00
2022-08-30T12:20:39.212Z,45.19
2022-08-30T12:25:43.690Z,45.81
2022-08-30T12:30:46.952Z,45.03
2022-08-30T12:35:50.287Z,44.42
2022-08-30T12:40:57.974Z,44.66
2022-08-30T12:46:07.213Z,45.74
2022-08-30T12:51:26.916Z,45.71
2022-08-30T12:56:53.894Z,44.61
2022-08-30T13:02:08.858Z,43.86
2022-08-30T13:07:33.130Z,41.28
2022-08-30T13:12:38.550Z,43.76
2022-08-30T13:17:41.756Z,43.58
2022-08-30T13:23:03.213Z,43.44
2022-08-30T13:28:09.176Z,42.65
2022-08-30T13:33:16.726Z,43.39
2022-08-30T13:38:19.936Z,43.10
2022-08-30T13:43:24.285Z,43.03
2022-08-30T13:48:28.176Z,42.25
2022-08-30T13:58:56.132Z,42.12
2022-08-30T14:04:15.946Z,42.05
2022-08-30T14:09:19.414Z,40.88
2022-08-30T14:14:41.487Z,39.36
2022-08-30T14:19:46.588Z,41.15
2022-08-30T14:24:54.192Z,41.04
2022-08-30T14:29:59.982Z,39.74
2022-08-30T14:35:03.072Z,39.64
2022-08-30T14:40:07.876Z,40.63
2022-08-30T14:45:13.268Z,40.67
2022-08-30T14:50:16.727Z,40.03
2022-08-30T14:55:20.051Z,40.75
2022-08-30T15:00:25.621Z,39.62
2022-08-30T15:05:28.828Z,41.24
2022-08-30T15:10:31.892Z,41.00
2022-08-30T15:15:36.908Z,40.88
2022-08-30T15:20:46.603Z,42.01
2022-08-30T15:25:49.687Z,42.49
2022-08-30T15:30:55.736Z,43.10
2022-08-30T15:36:02.086Z,42.09
2022-08-30T15:41:09.809Z,42.42
2022-08-30T15:46:22.604Z,42.19
2022-08-30T15:51:26.945Z,42.64
2022-08-30T15:56:31.489Z,42.37
2022-08-30T16:01:36.389Z,43.53
2022-08-30T16:06:39.953Z,43.92
2022-08-30T16:11:45.341Z,44.85
2022-08-30T16:16:49.841Z,44.79
2022-08-30T16:21:52.901Z,44.75
2022-08-30T16:26:56.365Z,44.94
2022-08-30T16:32:01.014Z,45.36
2022-08-30T16:37:04.068Z,46.10
2022-08-30T16:42:07.758Z,44.96
2022-08-30T16:47:13.540Z,44.89
2022-08-30T16:52:17.637Z,45.23
2022-08-30T16:57:21.263Z,45.17
2022-08-30T17:02:26.889Z,45.53
2022-08-30T17:07:33.255Z,46.68
2022-08-30T17:12:36.615Z,46.96
2022-08-30T17:17:43.311Z,47.49
2022-08-30T17:22:46.465Z,46.77
2022-08-30T17:27:49.857Z,47.88
2022-08-30T17:32:54.670Z,47.78
2022-08-30T17:37:59.232Z,48.47
2022-08-30T17:43:02.436Z,49.71
2022-08-30T17:48:08.008Z,49.34
2022-08-30T17:53:10.951Z,49.94
2022-08-30T17:58:13.944Z,50.43
2022-08-30T18:03:18.663Z,50.37
2022-08-30T18:08:21.760Z,51.00
2022-08-30T18:13:24.781Z,51.49
2022-08-30T18:18:29.165Z,52.18
2022-08-30T18:23:32.255Z,52.66
2022-08-30T18:28:35.632Z,53.35
2022-08-30T18:33:39.970Z,53.63
2022-08-30T18:38:45.181Z,54.21
2022-08-30T18:43:48.818Z,54.26
2022-08-30T18:48:56.282Z,54.74
2022-08-30T18:54:00.419Z,55.32
2022-08-30T18:59:06.011Z,56.08
2022-08-30T19:09:38.290Z,57.24
2022-08-30T19:14:41.619Z,57.75
2022-08-30T19:19:49.088Z,58.41
2022-08-30T19:24:53.772Z,59.35
2022-08-30T19:29:57.840Z,58.79
2022-08-30T19:35:03.752Z,59.23
2022-08-30T19:40:10.415Z,59.71
2022-08-30T19:45:18.129Z,60.78
2022-08-30T19:50:23.876Z,63.84
2022-08-30T19:55:31.413Z,66.52
2022-08-30T20:00:36.058Z,68.46
2022-08-30T20:05:43.670Z,71.29
2022-08-30T20:10:47.315Z,72.12
2022-08-30T20:15:55.818Z,75.54
2022-08-30T20:21:00.729Z,77.03
2022-08-30T20:24:30.255Z,56.59
2022-08-30T20:26:05.850Z,76.67
2022-08-30T20:31:10.666Z,79.02
2022-08-30T20:36:15.480Z,80.23
2022-08-30T20:41:20.192Z,80.80
2022-08-30T20:46:23.356Z,81.28
2022-08-30T20:51:28.724Z,81.07
2022-08-30T20:56:31.911Z,81.67
2022-08-30T21:01:38.451Z,81.88
2022-08-30T21:06:43.585Z,81.20
2022-08-30T21:11:47.648Z,80.77
2022-08-30T21:16:51.292Z,80.39
2022-08-30T21:21:55.647Z,80.51
2022-08-30T21:27:00.192Z,81.32
2022-08-30T21:32:03.747Z,81.15
2022-08-30T21:37:08.185Z,80.53
2022-08-30T21:42:11.893Z,79.26
2022-08-30T21:47:14.982Z,80.09
2022-08-30T21:52:28.169Z,80.13
2022-08-30T21:57:31.462Z,80.76
2022-08-30T22:02:35.513Z,81.74
2022-08-30T22:07:39.987Z,81.51
2022-08-30T22:12:42.940Z,83.75
2022-08-30T22:17:46.330Z,80.94
2022-08-30T22:22:50.785Z,82.61
2022-08-30T22:27:53.851Z,82.13
2022-08-30T22:32:57.294Z,85.07
2022-08-30T22:38:02.032Z,83.32
2022-08-30T22:43:05.246Z,83.00
2022-08-30T22:48:08.968Z,82.58
2022-08-30T22:53:13.320Z,84.17
2022-08-30T22:58:19.070Z,83.54
2022-08-30T23:03:22.207Z,82.56
2022-08-30T23:08:26.529Z,83.00
2022-08-30T23:13:29.533Z,82.73
2022-08-30T23:18:32.920Z,82.00
2022-08-30T23:23:55.280Z,84.08
2022-08-30T23:29:15.756Z,82.01
2022-08-30T23:34:36.634Z,83.49
2022-08-30T23:39:58.347Z,83.32
2022-08-30T23:45:18.991Z,82.46
2022-08-30T23:50:39.108Z,82.33
2022-08-30T23:56:01.264Z,83.43
